createdAt,value
2023-06-29T00:01:03.378Z,1.50
2023-06-29T00:03:31.040Z,1.42
2023-06-29T00:05:58.673Z,1.65
2023-06-29T00:08:30.032Z,1.50
2023-06-29T00:10:57.459Z,1.60
2023-06-29T00:13:25.175Z,1.40
2023-06-29T00:15:51.962Z,1.75
2023-06-29T00:18:20.172Z,1.88
2023-06-29T00:20:47.210Z,1.50
2023-06-29T00:23:13.870Z,1.80
2023-06-29T00:25:41.205Z,1.83
2023-06-29T00:28:08.234Z,2.25
2023-06-29T00:30:35.026Z,1.70
2023-06-29T00:33:01.782Z,1.85
2023-06-29T00:35:28.548Z,2.10
2023-06-29T00:37:55.902Z,1.77
2023-06-29T00:40:22.734Z,2.13
2023-06-29T00:42:49.853Z,1.83
2023-06-29T00:53:50.751Z,2.30
2023-06-29T00:56:17.494Z,2.33
2023-06-29T00:58:44.726Z,2.10
2023-06-29T01:01:11.447Z,2.10
2023-06-29T01:03:41.500Z,2.70
2023-06-29T01:06:14.295Z,2.50
2023-06-29T01:08:47.008Z,2.22
2023-06-29T01:11:14.765Z,2.40
2023-06-29T01:13:44.491Z,2.28
2023-06-29T01:18:41.716Z,2.08
2023-06-29T01:21:08.649Z,2.30
2023-06-29T01:23:38.535Z,2.42
2023-06-29T01:26:09.752Z,2.42
2023-06-29T01:28:39.439Z,2.35
2023-06-29T01:31:06.882Z,1.98
2023-06-29T01:33:34.829Z,2.60
2023-06-29T01:36:26.372Z,2.63
2023-06-29T01:39:05.222Z,2.10
2023-06-29T01:41:36.135Z,2.88
2023-06-29T01:44:06.037Z,2.45
2023-06-29T01:46:34.570Z,3.35
2023-06-29T01:49:02.184Z,2.60
2023-06-29T01:51:28.921Z,3.03
2023-06-29T01:53:55.593Z,3.00
2023-06-29T01:56:22.302Z,2.67
2023-06-29T01:58:48.941Z,3.38
2023-06-29T02:01:15.688Z,3.00
2023-06-29T02:03:42.585Z,3.85
2023-06-29T02:06:09.429Z,2.90
2023-06-29T02:08:36.239Z,3.55
2023-06-29T02:11:02.892Z,3.47
2023-06-29T02:13:29.613Z,2.60
2023-06-29T02:15:56.355Z,3.22
2023-06-29T02:18:23.186Z,3.00
2023-06-29T02:20:49.938Z,3.30
2023-06-29T02:23:16.695Z,3.38
2023-06-29T02:25:43.663Z,3.28
2023-06-29T02:28:10.467Z,3.75
2023-06-29T02:30:37.204Z,3.10
2023-06-29T02:33:03.964Z,3.55
2023-06-29T02:35:30.780Z,3.95
2023-06-29T02:37:57.442Z,3.85
2023-06-29T02:40:24.159Z,3.60
2023-06-29T02:42:50.837Z,3.58
2023-06-29T02:45:17.544Z,4.30
2023-06-29T02:47:44.369Z,3.67
2023-06-29T02:50:11.234Z,3.50
2023-06-29T02:52:37.976Z,4.30
2023-06-29T02:55:05.652Z,4.35
2023-06-29T02:57:32.364Z,4.18
2023-06-29T02:59:58.976Z,4.03
2023-06-29T03:02:25.849Z,4.30
2023-06-29T03:04:52.615Z,4.25
2023-06-29T03:07:19.259Z,4.68
2023-06-29T03:09:45.969Z,4.20
2023-06-29T03:12:13.427Z,4.22
2023-06-29T03:14:40.166Z,3.78
2023-06-29T03:17:06.987Z,5.00
2023-06-29T03:19:33.764Z,4.35
2023-06-29T03:22:00.520Z,4.07
2023-06-29T03:24:27.181Z,3.72
2023-06-29T03:26:54.190Z,4.60
2023-06-29T03:29:21.034Z,5.03
2023-06-29T03:31:47.752Z,4.70
2023-06-29T03:34:14.696Z,6.38
2023-06-29T03:36:41.460Z,6.35
2023-06-29T03:39:08.092Z,5.60
2023-06-29T03:41:34.766Z,5.32
2023-06-29T03:44:01.480Z,5.00
2023-06-29T03:46:28.222Z,4.60
2023-06-29T03:48:54.980Z,5.28
2023-06-29T03:51:21.643Z,5.00
2023-06-29T03:53:48.341Z,4.78
2023-06-29T03:56:15.080Z,5.80
2023-06-29T03:58:42.110Z,6.45
2023-06-29T04:01:08.816Z,6.20
2023-06-29T04:03:35.657Z,6.25
2023-06-29T04:06:02.376Z,6.13
2023-06-29T04:08:29.200Z,5.72
2023-06-29T04:10:55.827Z,6.95
2023-06-29T04:13:22.556Z,6.38
2023-06-29T04:15:49.158Z,6.38
2023-06-29T04:18:16.037Z,7.07
2023-06-29T04:20:42.686Z,6.65
2023-06-29T04:23:12.791Z,6.55
2023-06-29T04:25:43.427Z,6.00
2023-06-29T04:28:12.632Z,6.28
2023-06-29T04:30:43.429Z,6.72
2023-06-29T04:33:11.717Z,6.65
2023-06-29T04:35:42.452Z,6.88
2023-06-29T04:38:14.378Z,6.00
2023-06-29T04:40:41.133Z,6.53
2023-06-29T04:43:07.917Z,6.55
2023-06-29T04:45:34.669Z,7.00
2023-06-29T04:48:02.014Z,6.45
2023-06-29T04:50:36.212Z,6.68
2023-06-29T04:53:11.106Z,6.65
2023-06-29T04:55:38.915Z,6.47
2023-06-29T04:58:06.280Z,7.43
2023-06-29T05:00:34.028Z,6.35
2023-06-29T05:03:01.440Z,6.40
2023-06-29T05:05:28.248Z,6.93
2023-06-29T05:07:55.015Z,6.60
2023-06-29T05:10:21.766Z,5.97
2023-06-29T05:12:48.513Z,6.55
2023-06-29T05:15:16.487Z,6.30
2023-06-29T05:17:44.838Z,6.18
2023-06-29T05:20:12.282Z,6.20
2023-06-29T05:22:39.041Z,6.13
2023-06-29T05:25:06.181Z,6.30
2023-06-29T05:27:32.915Z,7.07
2023-06-29T05:29:59.659Z,6.35
2023-06-29T05:32:26.894Z,5.80
2023-06-29T05:34:53.654Z,5.72
2023-06-29T05:37:21.808Z,6.15
2023-06-29T05:39:48.532Z,7.28
2023-06-29T05:42:15.226Z,6.78
2023-06-29T05:44:41.903Z,6.75
2023-06-29T05:47:10.224Z,6.03
2023-06-29T05:49:37.067Z,6.85
2023-06-29T05:52:04.388Z,6.38
2023-06-29T05:54:31.132Z,6.30
2023-06-29T05:56:57.945Z,7.32
2023-06-29T05:59:24.580Z,5.95
2023-06-29T06:01:51.311Z,6.35
2023-06-29T06:04:18.009Z,5.53
2023-06-29T06:06:44.681Z,5.90
2023-06-29T06:09:11.349Z,5.22
2023-06-29T06:11:38.012Z,5.20
2023-06-29T06:14:04.680Z,6.28
2023-06-29T06:16:31.437Z,5.93
2023-06-29T06:18:58.107Z,6.53
2023-06-29T06:21:27.855Z,5.65
2023-06-29T06:23:54.966Z,5.32
2023-06-29T06:26:21.647Z,5.72
2023-06-29T06:28:48.400Z,5.30
2023-06-29T06:31:28.582Z,5.32
2023-06-29T06:34:00.629Z,6.10
2023-06-29T06:36:31.044Z,5.65
2023-06-29T06:38:57.706Z,5.40
2023-06-29T06:41:24.412Z,5.63
2023-06-29T06:43:51.049Z,4.47
2023-06-29T06:46:17.833Z,5.22
2023-06-29T06:48:44.501Z,5.28
2023-06-29T06:51:11.384Z,4.45
2023-06-29T06:53:38.105Z,4.57
2023-06-29T06:56:05.069Z,4.43
2023-06-29T06:58:31.919Z,5.10
2023-06-29T07:00:58.590Z,4.85
2023-06-29T07:03:26.954Z,3.95
2023-06-29T07:05:57.027Z,3.50
2023-06-29T07:08:23.774Z,4.32
2023-06-29T07:10:52.744Z,4.53
2023-06-29T07:13:19.678Z,3.33
2023-06-29T07:15:49.435Z,4.00
2023-06-29T07:18:16.176Z,3.95
2023-06-29T07:28:10.202Z,2.58
2023-06-29T07:30:36.884Z,2.75
2023-06-29T07:33:03.796Z,3.15
2023-06-29T07:35:30.578Z,3.00
2023-06-29T07:37:57.200Z,2.65
2023-06-29T07:40:24.166Z,3.15
2023-06-29T07:42:50.946Z,3.45
2023-06-29T07:45:17.794Z,2.80
2023-06-29T07:47:44.568Z,3.70
2023-06-29T07:50:12.065Z,3.92
2023-06-29T07:52:39.077Z,3.70
2023-06-29T07:55:06.145Z,3.00
2023-06-29T08:02:29.396Z,2.95
2023-06-29T08:07:25.839Z,3.22
2023-06-29T08:09:52.806Z,2.92
2023-06-29T08:12:19.462Z,3.13
2023-06-29T08:14:46.189Z,2.92
2023-06-29T08:17:12.837Z,2.40
2023-06-29T08:19:39.498Z,2.70
2023-06-29T08:22:06.458Z,2.80
2023-06-29T08:24:33.161Z,2.60
2023-06-29T08:27:00.031Z,3.03
2023-06-29T08:29:26.843Z,3.03
2023-06-29T08:31:53.668Z,2.90
2023-06-29T08:34:20.510Z,3.00
2023-06-29T08:36:47.134Z,3.15
2023-06-29T08:39:14.002Z,3.35
2023-06-29T08:41:40.831Z,3.10
2023-06-29T08:44:08.365Z,2.92
2023-06-29T08:46:38.780Z,3.13
2023-06-29T08:49:08.730Z,3.15
2023-06-29T08:51:40.074Z,2.97
2023-06-29T08:54:08.158Z,3.45
2023-06-29T08:56:35.308Z,3.20
2023-06-29T08:59:02.487Z,3.90
2023-06-29T09:01:33.873Z,3.70
2023-06-29T09:04:01.809Z,2.65
2023-06-29T09:06:30.098Z,3.17
2023-06-29T09:08:57.130Z,2.63
2023-06-29T09:11:24.228Z,2.38
2023-06-29T09:13:51.069Z,3.50
2023-06-29T09:16:21.754Z,3.67
2023-06-29T09:18:55.415Z,4.90
2023-06-29T09:21:24.468Z,4.43
2023-06-29T09:23:51.934Z,4.00
2023-06-29T09:26:19.019Z,3.97
2023-06-29T09:28:48.531Z,3.67
2023-06-29T09:31:15.314Z,4.25
2023-06-29T09:33:42.098Z,5.63
2023-06-29T09:36:09.652Z,4.85
2023-06-29T09:38:36.630Z,4.20
2023-06-29T09:41:07.828Z,4.35
2023-06-29T09:43:34.524Z,4.50
2023-06-29T09:46:09.083Z,4.07
2023-06-29T09:51:26.046Z,3.53
2023-06-29T09:53:52.860Z,3.75
2023-06-29T09:56:20.186Z,3.58
2023-06-29T09:58:50.748Z,3.35
2023-06-29T10:01:19.124Z,3.70
2023-06-29T10:03:46.000Z,3.63
2023-06-29T10:06:16.044Z,3.47
2023-06-29T10:08:44.654Z,3.00
2023-06-29T10:11:11.570Z,3.08
2023-06-29T10:13:40.975Z,3.15
2023-06-29T10:16:11.428Z,3.67
2023-06-29T10:18:42.442Z,3.00
2023-06-29T10:21:09.697Z,2.85
2023-06-29T10:23:37.476Z,3.10
2023-06-29T10:26:05.866Z,3.47
2023-06-29T10:28:34.629Z,3.00
2023-06-29T10:31:01.405Z,2.70
2023-06-29T10:33:28.441Z,3.47
2023-06-29T10:35:59.966Z,3.20
2023-06-29T10:38:34.144Z,2.90
2023-06-29T10:41:01.157Z,3.70
2023-06-29T10:43:29.039Z,7.25
2023-06-29T10:45:55.704Z,3.17
2023-06-29T10:48:42.788Z,3.13
2023-06-29T10:51:13.710Z,4.25
2023-06-29T10:53:40.995Z,2.70
2023-06-29T10:56:29.026Z,3.45
2023-06-29T10:58:55.665Z,3.35
2023-06-29T11:01:22.575Z,2.95
2023-06-29T11:03:50.247Z,3.40
2023-06-29T11:06:32.717Z,2.85
2023-06-29T11:09:11.255Z,2.75
2023-06-29T11:11:38.015Z,3.30
2023-06-29T11:14:04.899Z,2.85
2023-06-29T11:16:35.271Z,2.58
2023-06-29T11:19:03.627Z,2.60
2023-06-29T11:21:30.375Z,2.75
2023-06-29T11:23:57.076Z,2.53
2023-06-29T11:26:24.997Z,2.60
2023-06-29T11:28:53.933Z,2.97
2023-06-29T11:31:21.508Z,3.08
2023-06-29T11:33:49.423Z,2.50
2023-06-29T11:36:16.235Z,2.63
2023-06-29T11:38:43.179Z,2.15
2023-06-29T11:41:10.272Z,3.08
2023-06-29T11:43:37.300Z,3.08
2023-06-29T11:46:04.225Z,2.55
2023-06-29T11:48:31.376Z,3.30
2023-06-29T11:51:02.067Z,3.17
2023-06-29T11:53:29.543Z,3.05
2023-06-29T11:55:56.948Z,3.28
2023-06-29T11:58:23.788Z,2.88
2023-06-29T12:00:57.764Z,3.47
2023-06-29T12:03:25.264Z,3.50
2023-06-29T12:05:53.829Z,3.45
2023-06-29T12:08:21.757Z,3.37
2023-06-29T12:10:48.597Z,3.20
2023-06-29T12:13:15.342Z,3.00
2023-06-29T12:17:59.077Z,2.75
2023-06-29T12:18:36.722Z,3.08
2023-06-29T12:21:04.430Z,3.67
2023-06-29T12:23:31.472Z,3.70
2023-06-29T12:25:58.203Z,4.80
2023-06-29T12:28:24.879Z,3.95
2023-06-29T12:30:51.772Z,4.30
2023-06-29T12:33:18.665Z,4.20
2023-06-29T12:35:45.642Z,4.13
2023-06-29T12:38:12.521Z,4.43
2023-06-29T12:40:39.444Z,3.90
2023-06-29T12:43:06.417Z,3.85
2023-06-29T12:45:33.134Z,3.75
2023-06-29T12:47:59.923Z,4.88
2023-06-29T12:50:26.828Z,5.10
2023-06-29T12:52:53.663Z,4.60
2023-06-29T12:55:20.823Z,4.38
2023-06-29T12:57:47.755Z,4.10
2023-06-29T13:00:14.885Z,4.40
2023-06-29T13:02:42.226Z,4.20
2023-06-29T13:05:09.449Z,4.10
2023-06-29T13:07:37.090Z,4.10
2023-06-29T13:10:04.882Z,4.82
2023-06-29T13:12:31.932Z,4.18
2023-06-29T13:14:59.547Z,4.07
2023-06-29T13:17:27.078Z,3.97
2023-06-29T13:19:53.961Z,3.88
2023-06-29T13:22:20.905Z,3.88
2023-06-29T13:24:48.103Z,3.95
2023-06-29T13:27:15.631Z,3.55
2023-06-29T13:29:42.390Z,3.33
2023-06-29T13:32:09.410Z,3.50
2023-06-29T13:34:36.454Z,3.60
2023-06-29T13:37:03.393Z,3.15
2023-06-29T13:39:30.879Z,3.70
2023-06-29T13:41:57.686Z,3.92
2023-06-29T13:44:24.396Z,3.58
2023-06-29T13:46:51.579Z,4.10
2023-06-29T13:49:18.419Z,4.20
2023-06-29T13:51:46.910Z,4.78
2023-06-29T13:56:41.103Z,3.60
2023-06-29T13:59:09.818Z,4.05
2023-06-29T14:01:41.069Z,4.35
2023-06-29T14:04:09.699Z,4.22
2023-06-29T14:06:41.480Z,4.90
2023-06-29T14:09:09.633Z,4.65
2023-06-29T14:11:36.418Z,4.18
2023-06-29T14:14:03.481Z,3.75
2023-06-29T14:16:31.035Z,3.92
2023-06-29T14:18:59.963Z,3.92
2023-06-29T14:21:27.618Z,4.72
2023-06-29T14:23:54.416Z,5.57
2023-06-29T14:26:22.143Z,5.90
2023-06-29T14:28:49.024Z,6.88
2023-06-29T14:31:16.877Z,5.57
2023-06-29T14:33:45.538Z,5.40
2023-06-29T14:36:12.527Z,6.22
2023-06-29T14:38:39.232Z,6.82
2023-06-29T14:41:06.334Z,7.65
2023-06-29T14:43:33.038Z,7.43
2023-06-29T14:45:59.761Z,6.95
2023-06-29T14:48:27.044Z,7.13
2023-06-29T14:50:54.408Z,6.70
2023-06-29T14:53:22.274Z,7.93
2023-06-29T14:55:49.795Z,7.13
2023-06-29T14:58:17.113Z,7.80
2023-06-29T15:00:44.056Z,7.30
2023-06-29T15:03:10.829Z,7.82
2023-06-29T15:05:37.573Z,7.50
2023-06-29T15:08:04.437Z,6.95
2023-06-29T15:10:31.102Z,7.60
2023-06-29T15:12:57.876Z,8.98
2023-06-29T15:15:24.671Z,9.00
2023-06-29T15:17:51.637Z,8.63
2023-06-29T15:20:19.197Z,8.27
2023-06-29T15:22:46.112Z,7.60
2023-06-29T15:25:13.420Z,7.35
2023-06-29T15:27:40.333Z,7.47
2023-06-29T15:30:07.694Z,8.55
2023-06-29T15:32:34.717Z,7.55
2023-06-29T15:35:01.952Z,7.47
2023-06-29T15:37:28.607Z,7.82
2023-06-29T15:39:55.366Z,8.93
2023-06-29T15:42:22.199Z,8.55
2023-06-29T15:44:48.954Z,9.43
2023-06-29T15:47:15.659Z,9.88
2023-06-29T15:49:42.301Z,8.73
2023-06-29T15:52:09.279Z,8.40
2023-06-29T15:54:36.012Z,8.45
2023-06-29T15:57:02.726Z,8.85
2023-06-29T15:59:29.411Z,8.75
2023-06-29T16:01:56.561Z,9.23
2023-06-29T16:04:23.698Z,9.20
2023-06-29T16:06:50.501Z,9.40
2023-06-29T16:09:17.242Z,13.50
2023-06-29T16:11:43.956Z,10.38
2023-06-29T16:14:10.725Z,9.35
2023-06-29T16:16:37.683Z,8.52
2023-06-29T16:19:04.557Z,9.07
2023-06-29T16:21:31.292Z,9.07
2023-06-29T16:23:58.117Z,9.45
2023-06-29T16:26:24.939Z,8.70
2023-06-29T16:28:51.714Z,8.73
2023-06-29T16:31:18.701Z,8.52
2023-06-29T16:33:45.652Z,8.90
2023-06-29T16:36:12.333Z,8.43
2023-06-29T16:38:38.977Z,8.77
2023-06-29T16:41:05.709Z,8.63
2023-06-29T16:43:32.353Z,8.98
2023-06-29T16:45:59.181Z,8.82
2023-06-29T16:54:07.826Z,8.07
2023-06-29T16:56:34.733Z,9.10
2023-06-29T16:59:01.425Z,8.32
2023-06-29T17:01:28.239Z,8.02
2023-06-29T17:03:54.991Z,8.32
2023-06-29T17:06:21.782Z,8.98
2023-06-29T17:08:48.481Z,8.65
2023-06-29T17:11:15.356Z,7.60
2023-06-29T17:13:42.011Z,8.30
2023-06-29T17:16:08.949Z,8.07
2023-06-29T17:18:35.889Z,7.57
2023-06-29T17:21:02.637Z,8.10
2023-06-29T17:23:29.447Z,8.02
2023-06-29T17:25:56.112Z,7.50
2023-06-29T17:28:22.850Z,9.00
2023-06-29T17:30:49.684Z,8.05
2023-06-29T17:33:18.390Z,7.70
2023-06-29T17:35:45.271Z,8.35
2023-06-29T17:38:12.270Z,8.10
2023-06-29T17:40:38.984Z,7.60
2023-06-29T17:43:05.793Z,9.50
2023-06-29T17:45:32.885Z,7.40
2023-06-29T17:47:59.708Z,8.18
2023-06-29T17:50:26.484Z,7.97
2023-06-29T17:52:53.232Z,8.10
2023-06-29T17:55:20.109Z,8.27
2023-06-29T17:57:46.801Z,8.52
2023-06-29T18:00:16.234Z,8.27
2023-06-29T18:02:43.309Z,8.45
2023-06-29T18:05:10.675Z,7.55
2023-06-29T18:07:38.122Z,8.05
2023-06-29T18:10:08.064Z,8.80
2023-06-29T18:12:36.823Z,8.13
2023-06-29T18:15:05.677Z,7.97
2023-06-29T18:17:32.566Z,8.48
2023-06-29T18:19:59.731Z,7.85
2023-06-29T18:22:26.689Z,7.63
2023-06-29T18:24:53.484Z,8.20
2023-06-29T18:27:20.297Z,7.60
2023-06-29T18:29:46.949Z,8.52
2023-06-29T18:32:13.816Z,9.32
2023-06-29T18:34:40.521Z,8.52
2023-06-29T18:37:07.446Z,8.13
2023-06-29T18:39:34.364Z,8.00
2023-06-29T18:42:01.147Z,8.55
2023-06-29T18:44:27.824Z,8.43
2023-06-29T18:47:11.586Z,8.35
2023-06-29T18:52:09.805Z,8.40
2023-06-29T18:54:36.772Z,8.45
2023-06-29T18:57:07.547Z,8.38
2023-06-29T18:59:36.839Z,8.45
2023-06-29T19:02:04.141Z,8.55
2023-06-29T19:04:31.605Z,8.20
2023-06-29T19:06:58.352Z,9.40
2023-06-29T19:09:25.195Z,8.00
2023-06-29T19:11:51.960Z,9.90
2023-06-29T19:14:18.701Z,8.38
2023-06-29T19:16:45.558Z,9.93
2023-06-29T19:19:13.247Z,9.23
2023-06-29T19:21:48.347Z,9.55
2023-06-29T19:24:16.846Z,8.80
2023-06-29T19:26:43.927Z,7.93
2023-06-29T19:29:14.765Z,8.20
2023-06-29T19:31:43.746Z,7.85
2023-06-29T19:34:11.951Z,8.80
2023-06-29T19:36:39.680Z,8.13
2023-06-29T19:39:06.552Z,8.43
2023-06-29T19:41:33.255Z,10.65
2023-06-29T19:44:00.946Z,9.13
2023-06-29T19:46:27.806Z,8.73
2023-06-29T19:48:54.644Z,7.95
2023-06-29T19:51:21.497Z,8.43
2023-06-29T19:53:48.445Z,7.85
2023-06-29T19:56:15.443Z,8.23
2023-06-29T19:58:42.258Z,8.65
2023-06-29T20:01:09.128Z,8.93
2023-06-29T20:03:35.947Z,8.68
2023-06-29T20:06:02.748Z,7.80
2023-06-29T20:08:29.376Z,8.30
2023-06-29T20:10:56.035Z,7.20
2023-06-29T20:13:22.712Z,8.45
2023-06-29T20:15:49.923Z,8.25
2023-06-29T20:18:16.975Z,10.18
2023-06-29T20:20:43.722Z,8.27
2023-06-29T20:23:11.983Z,8.40
2023-06-29T20:25:38.922Z,7.68
2023-06-29T20:28:05.702Z,7.68
2023-06-29T20:30:32.403Z,8.18
2023-06-29T20:32:59.196Z,9.23
2023-06-29T20:35:25.908Z,8.85
2023-06-29T20:37:53.172Z,7.05
2023-06-29T20:40:20.002Z,9.00
2023-06-29T20:42:46.704Z,7.70
2023-06-29T20:45:13.663Z,7.60
2023-06-29T20:47:40.883Z,8.68
2023-06-29T20:50:08.075Z,8.48
2023-06-29T20:52:34.756Z,8.27
2023-06-29T20:55:01.467Z,8.93
2023-06-29T20:57:28.310Z,9.00
2023-06-29T20:59:55.089Z,10.43
2023-06-29T21:02:22.055Z,8.50
2023-06-29T21:04:49.150Z,9.02
2023-06-29T21:07:16.149Z,9.40
2023-06-29T21:09:42.940Z,7.53
2023-06-29T21:12:10.304Z,7.63
2023-06-29T21:14:37.353Z,7.45
2023-06-29T21:17:04.398Z,8.43
2023-06-29T21:19:31.432Z,7.72
2023-06-29T21:21:58.901Z,7.47
2023-06-29T21:24:25.948Z,8.27
2023-06-29T21:26:53.526Z,6.72
2023-06-29T21:29:34.050Z,6.63
2023-06-29T21:32:11.252Z,7.28
2023-06-29T21:34:39.012Z,6.65
2023-06-29T21:37:06.620Z,6.90
2023-06-29T21:39:33.307Z,6.88
2023-06-29T21:42:00.116Z,7.35
2023-06-29T21:44:27.207Z,6.80
2023-06-29T21:46:53.978Z,7.28
2023-06-29T21:49:21.541Z,7.07
2023-06-29T21:51:48.393Z,6.47
2023-06-29T21:54:15.307Z,7.72
2023-06-29T21:56:42.366Z,6.80
2023-06-29T21:59:09.234Z,6.72
2023-06-29T22:01:36.087Z,6.80
2023-06-29T22:04:03.244Z,6.82
2023-06-29T22:06:30.409Z,6.25
2023-06-29T22:08:57.794Z,6.30
2023-06-29T22:11:28.100Z,5.95
2023-06-29T22:13:55.119Z,6.07
2023-06-29T22:16:23.899Z,6.00
2023-06-29T22:18:51.987Z,6.90
2023-06-29T22:21:22.651Z,5.93
2023-06-29T22:23:53.393Z,5.93
2023-06-29T22:26:20.913Z,6.43
2023-06-29T22:28:48.047Z,5.97
2023-06-29T22:31:18.039Z,6.40
2023-06-29T22:33:46.110Z,6.47
2023-06-29T22:36:13.492Z,7.55
2023-06-29T22:38:40.596Z,6.30
2023-06-29T22:41:07.295Z,7.03
2023-06-29T22:43:34.310Z,7.95
2023-06-29T22:46:01.021Z,7.05
2023-06-29T22:48:27.876Z,6.90
2023-06-29T22:50:56.752Z,6.32
2023-06-29T22:53:26.932Z,6.68
2023-06-29T22:55:53.674Z,7.60
2023-06-29T22:58:25.305Z,7.30
2023-06-29T23:00:56.008Z,7.00
2023-06-29T23:03:23.787Z,7.75
2023-06-29T23:05:50.798Z,7.18
2023-06-29T23:08:17.868Z,6.30
2023-06-29T23:10:47.642Z,7.03
2023-06-29T23:13:17.995Z,6.88
2023-06-29T23:15:45.996Z,7.05
2023-06-29T23:18:13.857Z,6.78
2023-06-29T23:20:47.538Z,7.38
2023-06-29T23:23:14.615Z,6.45
2023-06-29T23:25:42.598Z,7.00
2023-06-29T23:28:09.588Z,6.68
2023-06-29T23:30:36.683Z,7.03
2023-06-29T23:33:03.633Z,7.50
2023-06-29T23:35:30.312Z,7.18
2023-06-29T23:37:57.083Z,7.13
2023-06-29T23:40:23.825Z,6.97
2023-06-29T23:42:51.243Z,7.55
2023-06-29T23:45:18.003Z,7.13
2023-06-29T23:47:44.858Z,7.43
2023-06-29T23:50:14.115Z,6.93
2023-06-29T23:52:41.653Z,7.63
2023-06-29T23:55:10.536Z,7.43
2023-06-29T23:57:37.249Z,6.50
